sensor_id;sensor_type;location;lat;lon;timestamp;temperature;humidity
73133;DHT22;61320;52.008;4.530;2023-01-09T00:01:18;9.08;79.28
73133;DHT22;61320;52.008;4.530;2023-01-09T00:03:45;9.03;77.84
73133;DHT22;61320;52.008;4.530;2023-01-09T00:06:10;9.00;79.17
73133;DHT22;61320;52.008;4.530;2023-01-09T00:08:36;9.04;79.95
73133;DHT22;61320;52.008;4.530;2023-01-09T00:11:01;9.14;79.03
73133;DHT22;61320;52.008;4.530;2023-01-09T00:13:29;9.11;79.26
73133;DHT22;61320;52.008;4.530;2023-01-09T00:15:55;9.07;79.08
73133;DHT22;61320;52.008;4.530;2023-01-09T00:18:21;9.07;78.25
73133;DHT22;61320;52.008;4.530;2023-01-09T00:20:46;9.04;79.88
73133;DHT22;61320;52.008;4.530;2023-01-09T00:23:11;9.04;78.30
73133;DHT22;61320;52.008;4.530;2023-01-09T00:25:37;9.01;79.57
73133;DHT22;61320;52.008;4.530;2023-01-09T00:28:02;9.06;78.90
73133;DHT22;61320;52.008;4.530;2023-01-09T00:30:28;9.03;79.49
73133;DHT22;61320;52.008;4.530;2023-01-09T00:32:54;9.06;79.03
73133;DHT22;61320;52.008;4.530;2023-01-09T00:35:23;9.04;79.43
73133;DHT22;61320;52.008;4.530;2023-01-09T00:37:49;9.06;79.30
73133;DHT22;61320;52.008;4.530;2023-01-09T00:40:15;9.04;79.36
73133;DHT22;61320;52.008;4.530;2023-01-09T00:42:45;9.08;78.68
73133;DHT22;61320;52.008;4.530;2023-01-09T00:45:19;9.03;78.26
73133;DHT22;61320;52.008;4.530;2023-01-09T00:47:51;8.97;78.64
73133;DHT22;61320;52.008;4.530;2023-01-09T00:50:23;8.93;79.28
73133;DHT22;61320;52.008;4.530;2023-01-09T00:52:53;8.91;79.85
73133;DHT22;61320;52.008;4.530;2023-01-09T00:55:19;8.89;78.79
73133;DHT22;61320;52.008;4.530;2023-01-09T00:57:45;8.86;79.28
73133;DHT22;61320;52.008;4.530;2023-01-09T01:00:11;8.84;78.52
73133;DHT22;61320;52.008;4.530;2023-01-09T01:02:37;8.81;79.75
73133;DHT22;61320;52.008;4.530;2023-01-09T01:05:03;8.83;79.04
73133;DHT22;61320;52.008;4.530;2023-01-09T01:07:47;8.77;79.00
73133;DHT22;61320;52.008;4.530;2023-01-09T01:10:19;8.70;79.17
73133;DHT22;61320;52.008;4.530;2023-01-09T01:12:47;8.75;80.38
73133;DHT22;61320;52.008;4.530;2023-01-09T01:15:13;8.75;78.25
73133;DHT22;61320;52.008;4.530;2023-01-09T01:17:40;8.75;79.25
73133;DHT22;61320;52.008;4.530;2023-01-09T01:20:10;8.75;79.58
73133;DHT22;61320;52.008;4.530;2023-01-09T01:22:36;8.79;79.68
73133;DHT22;61320;52.008;4.530;2023-01-09T01:25:03;8.83;79.54
73133;DHT22;61320;52.008;4.530;2023-01-09T01:27:29;8.84;79.72
73133;DHT22;61320;52.008;4.530;2023-01-09T01:29:54;8.91;80.38
73133;DHT22;61320;52.008;4.530;2023-01-09T01:32:20;8.97;79.07
73133;DHT22;61320;52.008;4.530;2023-01-09T01:34:45;8.90;79.36
73133;DHT22;61320;52.008;4.530;2023-01-09T01:37:11;8.94;79.55
73133;DHT22;61320;52.008;4.530;2023-01-09T01:39:36;8.99;78.70
73133;DHT22;61320;52.008;4.530;2023-01-09T01:42:03;9.00;79.48
73133;DHT22;61320;52.008;4.530;2023-01-09T01:48:37;8.87;79.15
73133;DHT22;61320;52.008;4.530;2023-01-09T01:51:03;8.84;78.57
73133;DHT22;61320;52.008;4.530;2023-01-09T01:53:37;8.84;79.48
73133;DHT22;61320;52.008;4.530;2023-01-09T01:58:41;8.79;78.70
73133;DHT22;61320;52.008;4.530;2023-01-09T02:01:08;8.79;78.56
73133;DHT22;61320;52.008;4.530;2023-01-09T02:03:37;8.73;79.15
73133;DHT22;61320;52.008;4.530;2023-01-09T02:06:04;8.77;79.89
73133;DHT22;61320;52.008;4.530;2023-01-09T02:08:31;8.81;79.11
73133;DHT22;61320;52.008;4.530;2023-01-09T02:10:56;8.80;77.89
73133;DHT22;61320;52.008;4.530;2023-01-09T02:13:24;8.73;79.06
73133;DHT22;61320;52.008;4.530;2023-01-09T02:21:11;8.75;79.38
73133;DHT22;61320;52.008;4.530;2023-01-09T02:24:07;8.75;79.27
73133;DHT22;61320;52.008;4.530;2023-01-09T02:26:58;8.76;79.07
73133;DHT22;61320;52.008;4.530;2023-01-09T02:32:13;8.79;78.54
73133;DHT22;61320;52.008;4.530;2023-01-09T02:35:13;8.80;78.94
73133;DHT22;61320;52.008;4.530;2023-01-09T02:38:46;8.75;79.42
73133;DHT22;61320;52.008;4.530;2023-01-09T02:41:05;8.75;79.40
73133;DHT22;61320;52.008;4.530;2023-01-09T02:43:32;8.69;79.19
73133;DHT22;61320;52.008;4.530;2023-01-09T02:45:58;8.70;78.66
73133;DHT22;61320;52.008;4.530;2023-01-09T02:48:23;8.68;79.22
73133;DHT22;61320;52.008;4.530;2023-01-09T02:53:39;8.75;79.75
73133;DHT22;61320;52.008;4.530;2023-01-09T03:07:20;8.63;78.86
73133;DHT22;61320;52.008;4.530;2023-01-09T03:09:55;8.62;78.58
73133;DHT22;61320;52.008;4.530;2023-01-09T03:12:27;8.60;77.93
73133;DHT22;61320;52.008;4.530;2023-01-09T03:14:58;8.59;78.48
73133;DHT22;61320;52.008;4.530;2023-01-09T03:17:36;8.59;79.38
73133;DHT22;61320;52.008;4.530;2023-01-09T03:20:08;8.63;79.06
73133;DHT22;61320;52.008;4.530;2023-01-09T03:22:34;8.70;78.03
73133;DHT22;61320;52.008;4.530;2023-01-09T03:25:00;8.72;78.05
73133;DHT22;61320;52.008;4.530;2023-01-09T03:27:26;8.77;78.93
73133;DHT22;61320;52.008;4.530;2023-01-09T03:29:51;8.76;78.54
73133;DHT22;61320;52.008;4.530;2023-01-09T03:32:18;8.77;77.43
73133;DHT22;61320;52.008;4.530;2023-01-09T03:34:44;8.81;77.42
73133;DHT22;61320;52.008;4.530;2023-01-09T03:37:09;8.80;77.26
73133;DHT22;61320;52.008;4.530;2023-01-09T03:39:35;8.84;77.70
73133;DHT22;61320;52.008;4.530;2023-01-09T03:42:00;8.90;78.74
73133;DHT22;61320;52.008;4.530;2023-01-09T03:44:26;8.91;78.48
73133;DHT22;61320;52.008;4.530;2023-01-09T03:46:51;8.99;78.76
73133;DHT22;61320;52.008;4.530;2023-01-09T03:49:16;9.01;78.39
73133;DHT22;61320;52.008;4.530;2023-01-09T03:51:43;9.04;77.33
73133;DHT22;61320;52.008;4.530;2023-01-09T03:54:08;9.06;77.51
73133;DHT22;61320;52.008;4.530;2023-01-09T03:56:34;9.00;79.33
73133;DHT22;61320;52.008;4.530;2023-01-09T03:59:00;8.97;79.81
73133;DHT22;61320;52.008;4.530;2023-01-09T04:01:25;8.94;79.43
73133;DHT22;61320;52.008;4.530;2023-01-09T04:03:51;8.87;80.15
73133;DHT22;61320;52.008;4.530;2023-01-09T04:06:16;8.87;79.87
73133;DHT22;61320;52.008;4.530;2023-01-09T04:08:42;8.75;80.29
73133;DHT22;61320;52.008;4.530;2023-01-09T04:11:07;8.70;80.67
73133;DHT22;61320;52.008;4.530;2023-01-09T04:13:33;8.69;80.80
73133;DHT22;61320;52.008;4.530;2023-01-09T04:15:58;8.68;80.66
73133;DHT22;61320;52.008;4.530;2023-01-09T04:18:23;8.72;80.72
73133;DHT22;61320;52.008;4.530;2023-01-09T04:20:49;8.72;81.36
73133;DHT22;61320;52.008;4.530;2023-01-09T04:23:15;8.77;81.21
73133;DHT22;61320;52.008;4.530;2023-01-09T04:25:41;8.89;81.28
73133;DHT22;61320;52.008;4.530;2023-01-09T04:28:06;8.89;80.96
73133;DHT22;61320;52.008;4.530;2023-01-09T04:30:31;8.91;79.92
73133;DHT22;61320;52.008;4.530;2023-01-09T04:32:57;8.84;80.36
73133;DHT22;61320;52.008;4.530;2023-01-09T04:35:22;8.81;79.76
73133;DHT22;61320;52.008;4.530;2023-01-09T04:37:48;8.77;79.70
73133;DHT22;61320;52.008;4.530;2023-01-09T04:40:15;8.76;80.31
73133;DHT22;61320;52.008;4.530;2023-01-09T04:42:40;8.79;80.15
73133;DHT22;61320;52.008;4.530;2023-01-09T04:45:08;8.77;80.01
73133;DHT22;61320;52.008;4.530;2023-01-09T04:47:34;8.77;80.00
73133;DHT22;61320;52.008;4.530;2023-01-09T04:50:00;8.70;79.30
73133;DHT22;61320;52.008;4.530;2023-01-09T04:52:26;8.72;80.27
73133;DHT22;61320;52.008;4.530;2023-01-09T04:54:51;8.76;79.66
73133;DHT22;61320;52.008;4.530;2023-01-09T04:57:17;8.76;80.56
73133;DHT22;61320;52.008;4.530;2023-01-09T04:59:43;8.83;79.14
73133;DHT22;61320;52.008;4.530;2023-01-09T05:02:09;8.79;79.92
73133;DHT22;61320;52.008;4.530;2023-01-09T05:04:35;8.83;80.81
73133;DHT22;61320;52.008;4.530;2023-01-09T05:07:01;8.86;81.54
73133;DHT22;61320;52.008;4.530;2023-01-09T05:09:27;8.86;81.93
73133;DHT22;61320;52.008;4.530;2023-01-09T05:11:52;8.73;82.40
73133;DHT22;61320;52.008;4.530;2023-01-09T05:14:18;8.72;82.69
73133;DHT22;61320;52.008;4.530;2023-01-09T05:16:43;8.73;82.67
73133;DHT22;61320;52.008;4.530;2023-01-09T05:19:09;8.70;83.26
73133;DHT22;61320;52.008;4.530;2023-01-09T05:21:34;8.72;82.74
73133;DHT22;61320;52.008;4.530;2023-01-09T05:24:00;8.73;83.35
73133;DHT22;61320;52.008;4.530;2023-01-09T05:26:25;8.70;82.64
73133;DHT22;61320;52.008;4.530;2023-01-09T05:28:55;8.69;83.27
73133;DHT22;61320;52.008;4.530;2023-01-09T05:31:21;8.69;82.87
73133;DHT22;61320;52.008;4.530;2023-01-09T05:33:47;8.66;83.35
73133;DHT22;61320;52.008;4.530;2023-01-09T05:36:13;8.72;82.95
73133;DHT22;61320;52.008;4.530;2023-01-09T05:38:39;8.69;82.85
73133;DHT22;61320;52.008;4.530;2023-01-09T05:41:05;8.70;82.69
73133;DHT22;61320;52.008;4.530;2023-01-09T05:43:31;8.65;83.16
73133;DHT22;61320;52.008;4.530;2023-01-09T05:45:56;8.65;82.79
73133;DHT22;61320;52.008;4.530;2023-01-09T05:48:22;8.59;82.96
73133;DHT22;61320;52.008;4.530;2023-01-09T05:50:47;8.56;83.23
73133;DHT22;61320;52.008;4.530;2023-01-09T05:53:13;8.50;83.39
73133;DHT22;61320;52.008;4.530;2023-01-09T05:55:38;8.49;83.43
73133;DHT22;61320;52.008;4.530;2023-01-09T05:58:04;8.46;83.43
73133;DHT22;61320;52.008;4.530;2023-01-09T06:00:29;8.48;83.27
73133;DHT22;61320;52.008;4.530;2023-01-09T06:02:55;8.49;83.80
73133;DHT22;61320;52.008;4.530;2023-01-09T06:05:20;8.50;83.40
73133;DHT22;61320;52.008;4.530;2023-01-09T06:07:46;8.50;83.60
73133;DHT22;61320;52.008;4.530;2023-01-09T06:10:13;8.49;84.10
73133;DHT22;61320;52.008;4.530;2023-01-09T06:12:39;8.49;83.94
73133;DHT22;61320;52.008;4.530;2023-01-09T06:15:04;8.46;83.93
73133;DHT22;61320;52.008;4.530;2023-01-09T06:17:30;8.48;84.50
73133;DHT22;61320;52.008;4.530;2023-01-09T06:19:55;8.53;84.51
73133;DHT22;61320;52.008;4.530;2023-01-09T06:22:21;8.58;84.20
73133;DHT22;61320;52.008;4.530;2023-01-09T06:24:47;8.59;84.46
73133;DHT22;61320;52.008;4.530;2023-01-09T06:27:12;8.62;84.40
73133;DHT22;61320;52.008;4.530;2023-01-09T06:29:38;8.58;84.71
73133;DHT22;61320;52.008;4.530;2023-01-09T06:32:04;8.60;84.67
73133;DHT22;61320;52.008;4.530;2023-01-09T06:34:30;8.63;83.77
73133;DHT22;61320;52.008;4.530;2023-01-09T06:36:55;8.59;84.20
73133;DHT22;61320;52.008;4.530;2023-01-09T06:39:20;8.59;84.86
73133;DHT22;61320;52.008;4.530;2023-01-09T06:41:46;8.59;84.14
73133;DHT22;61320;52.008;4.530;2023-01-09T06:44:11;8.59;84.70
73133;DHT22;61320;52.008;4.530;2023-01-09T06:46:37;8.63;84.27
73133;DHT22;61320;52.008;4.530;2023-01-09T06:49:03;8.65;84.42
73133;DHT22;61320;52.008;4.530;2023-01-09T06:51:28;8.68;84.75
73133;DHT22;61320;52.008;4.530;2023-01-09T06:53:54;8.75;84.06
73133;DHT22;61320;52.008;4.530;2023-01-09T06:56:19;8.66;84.70
73133;DHT22;61320;52.008;4.530;2023-01-09T06:58:45;8.73;84.79
73133;DHT22;61320;52.008;4.530;2023-01-09T07:01:11;8.76;84.37
73133;DHT22;61320;52.008;4.530;2023-01-09T07:03:36;8.80;84.65
73133;DHT22;61320;52.008;4.530;2023-01-09T07:06:02;8.81;84.80
73133;DHT22;61320;52.008;4.530;2023-01-09T07:08:28;8.90;84.95
73133;DHT22;61320;52.008;4.530;2023-01-09T07:10:53;8.97;84.22
73133;DHT22;61320;52.008;4.530;2023-01-09T07:13:19;8.93;84.47
73133;DHT22;61320;52.008;4.530;2023-01-09T07:15:44;8.91;84.36
73133;DHT22;61320;52.008;4.530;2023-01-09T07:18:10;8.94;84.91
73133;DHT22;61320;52.008;4.530;2023-01-09T07:20:38;9.00;84.69
73133;DHT22;61320;52.008;4.530;2023-01-09T07:23:05;9.08;84.81
73133;DHT22;61320;52.008;4.530;2023-01-09T07:25:30;9.10;84.40
73133;DHT22;61320;52.008;4.530;2023-01-09T07:27:55;9.17;83.84
73133;DHT22;61320;52.008;4.530;2023-01-09T07:30:21;9.11;83.88
73133;DHT22;61320;52.008;4.530;2023-01-09T07:32:47;9.11;83.78
73133;DHT22;61320;52.008;4.530;2023-01-09T07:35:13;9.08;83.70
73133;DHT22;61320;52.008;4.530;2023-01-09T07:37:38;9.06;83.50
73133;DHT22;61320;52.008;4.530;2023-01-09T07:40:04;9.08;83.80
73133;DHT22;61320;52.008;4.530;2023-01-09T07:42:30;9.08;83.48
73133;DHT22;61320;52.008;4.530;2023-01-09T07:44:55;9.07;83.61
73133;DHT22;61320;52.008;4.530;2023-01-09T07:47:21;9.06;83.89
73133;DHT22;61320;52.008;4.530;2023-01-09T07:49:46;9.08;84.45
73133;DHT22;61320;52.008;4.530;2023-01-09T07:52:12;9.16;83.90
73133;DHT22;61320;52.008;4.530;2023-01-09T07:54:37;9.17;83.71
73133;DHT22;61320;52.008;4.530;2023-01-09T07:57:02;9.14;83.93
73133;DHT22;61320;52.008;4.530;2023-01-09T07:59:28;9.17;83.91
73133;DHT22;61320;52.008;4.530;2023-01-09T08:01:54;9.20;83.47
73133;DHT22;61320;52.008;4.530;2023-01-09T08:04:20;9.21;84.10
73133;DHT22;61320;52.008;4.530;2023-01-09T08:06:45;9.26;83.93
73133;DHT22;61320;52.008;4.530;2023-01-09T08:09:11;9.28;84.00
73133;DHT22;61320;52.008;4.530;2023-01-09T08:11:38;9.28;84.20
73133;DHT22;61320;52.008;4.530;2023-01-09T08:14:03;9.35;84.31
73133;DHT22;61320;52.008;4.530;2023-01-09T08:16:29;9.42;83.84
73133;DHT22;61320;52.008;4.530;2023-01-09T08:18:54;9.42;83.55
73133;DHT22;61320;52.008;4.530;2023-01-09T08:21:19;9.41;83.88
73133;DHT22;61320;52.008;4.530;2023-01-09T08:23:45;9.45;83.62
73133;DHT22;61320;52.008;4.530;2023-01-09T08:26:10;9.48;84.36
73133;DHT22;61320;52.008;4.530;2023-01-09T08:28:36;9.49;83.52
73133;DHT22;61320;52.008;4.530;2023-01-09T08:31:01;9.51;83.65
73133;DHT22;61320;52.008;4.530;2023-01-09T08:33:27;9.55;83.48
73133;DHT22;61320;52.008;4.530;2023-01-09T08:35:53;9.54;83.63
73133;DHT22;61320;52.008;4.530;2023-01-09T08:38:18;9.55;83.94
73133;DHT22;61320;52.008;4.530;2023-01-09T08:40:46;9.63;84.10
73133;DHT22;61320;52.008;4.530;2023-01-09T08:43:12;9.71;83.78
73133;DHT22;61320;52.008;4.530;2023-01-09T08:45:57;9.71;82.97
73133;DHT22;61320;52.008;4.530;2023-01-09T08:48:41;9.71;83.15
73133;DHT22;61320;52.008;4.530;2023-01-09T08:51:08;9.69;83.16
73133;DHT22;61320;52.008;4.530;2023-01-09T08:53:33;9.74;82.96
73133;DHT22;61320;52.008;4.530;2023-01-09T08:55:59;9.69;83.00
73133;DHT22;61320;52.008;4.530;2023-01-09T08:58:25;9.71;83.39
73133;DHT22;61320;52.008;4.530;2023-01-09T09:00:50;9.74;83.56
73133;DHT22;61320;52.008;4.530;2023-01-09T09:03:16;9.74;83.66
73133;DHT22;61320;52.008;4.530;2023-01-09T09:05:42;9.79;83.48
73133;DHT22;61320;52.008;4.530;2023-01-09T09:08:07;9.86;83.53
73133;DHT22;61320;52.008;4.530;2023-01-09T09:10:33;9.83;83.67
73133;DHT22;61320;52.008;4.530;2023-01-09T09:12:59;9.89;83.39
73133;DHT22;61320;52.008;4.530;2023-01-09T09:15:26;9.90;83.36
73133;DHT22;61320;52.008;4.530;2023-01-09T09:18:10;9.92;82.97
73133;DHT22;61320;52.008;4.530;2023-01-09T09:20:37;9.92;83.33
73133;DHT22;61320;52.008;4.530;2023-01-09T09:23:04;9.97;83.48
73133;DHT22;61320;52.008;4.530;2023-01-09T09:25:31;10.00;83.14
73133;DHT22;61320;52.008;4.530;2023-01-09T09:27:56;9.97;82.90
73133;DHT22;61320;52.008;4.530;2023-01-09T09:30:23;9.96;82.87
73133;DHT22;61320;52.008;4.530;2023-01-09T09:32:48;9.96;82.99
73133;DHT22;61320;52.008;4.530;2023-01-09T09:35:15;9.97;82.77
73133;DHT22;61320;52.008;4.530;2023-01-09T09:37:42;10.00;83.10
73133;DHT22;61320;52.008;4.530;2023-01-09T09:40:19;10.00;82.74
73133;DHT22;61320;52.008;4.530;2023-01-09T09:43:09;10.00;82.29
73133;DHT22;61320;52.008;4.530;2023-01-09T09:48:51;10.00;82.59
73133;DHT22;61320;52.008;4.530;2023-01-09T09:52:43;10.00;82.92
73133;DHT22;61320;52.008;4.530;2023-01-09T09:54:42;10.03;83.01
73133;DHT22;61320;52.008;4.530;2023-01-09T09:57:19;10.03;82.80
73133;DHT22;61320;52.008;4.530;2023-01-09T09:59:47;10.02;82.10
73133;DHT22;61320;52.008;4.530;2023-01-09T10:02:59;9.95;81.92
73133;DHT22;61320;52.008;4.530;2023-01-09T10:05:40;9.99;82.31
73133;DHT22;61320;52.008;4.530;2023-01-09T10:11:42;9.90;82.24
73133;DHT22;61320;52.008;4.530;2023-01-09T10:14:06;9.90;82.58
73133;DHT22;61320;52.008;4.530;2023-01-09T10:17:03;9.90;82.53
73133;DHT22;61320;52.008;4.530;2023-01-09T10:22:29;10.02;82.47
73133;DHT22;61320;52.008;4.530;2023-01-09T10:30:46;10.12;81.80
73133;DHT22;61320;52.008;4.530;2023-01-09T10:39:17;10.13;81.53
73133;DHT22;61320;52.008;4.530;2023-01-09T10:44:59;10.24;81.44
73133;DHT22;61320;52.008;4.530;2023-01-09T10:47:36;10.17;80.83
73133;DHT22;61320;52.008;4.530;2023-01-09T10:50:24;10.23;80.71
73133;DHT22;61320;52.008;4.530;2023-01-09T10:52:53;10.21;81.01
73133;DHT22;61320;52.008;4.530;2023-01-09T10:55:33;10.18;80.99
73133;DHT22;61320;52.008;4.530;2023-01-09T10:58:11;10.21;80.51
73133;DHT22;61320;52.008;4.530;2023-01-09T11:00:37;10.24;81.10
73133;DHT22;61320;52.008;4.530;2023-01-09T11:03:03;10.29;80.52
73133;DHT22;61320;52.008;4.530;2023-01-09T11:05:31;10.30;79.42
73133;DHT22;61320;52.008;4.530;2023-01-09T11:10:53;10.36;79.74
73133;DHT22;61320;52.008;4.530;2023-01-09T11:13:23;10.38;80.34
73133;DHT22;61320;52.008;4.530;2023-01-09T11:18:30;10.48;80.34
73133;DHT22;61320;52.008;4.530;2023-01-09T11:20:55;10.54;80.59
73133;DHT22;61320;52.008;4.530;2023-01-09T11:23:27;10.60;80.40
73133;DHT22;61320;52.008;4.530;2023-01-09T11:25:57;10.61;80.20
73133;DHT22;61320;52.008;4.530;2023-01-09T11:28:23;10.61;80.44
73133;DHT22;61320;52.008;4.530;2023-01-09T11:33:28;10.57;79.07
73133;DHT22;61320;52.008;4.530;2023-01-09T11:36:08;10.65;80.43
73133;DHT22;61320;52.008;4.530;2023-01-09T11:38:55;10.82;80.56
73133;DHT22;61320;52.008;4.530;2023-01-09T11:41:33;10.95;79.17
73133;DHT22;61320;52.008;4.530;2023-01-09T11:44:02;10.95;79.01
73133;DHT22;61320;52.008;4.530;2023-01-09T11:46:39;11.01;78.81
73133;DHT22;61320;52.008;4.530;2023-01-09T11:51:44;11.13;79.21
73133;DHT22;61320;52.008;4.530;2023-01-09T11:56:39;11.06;78.05
73133;DHT22;61320;52.008;4.530;2023-01-09T11:59:16;11.02;78.99
73133;DHT22;61320;52.008;4.530;2023-01-09T12:04:45;10.98;79.03
73133;DHT22;61320;52.008;4.530;2023-01-09T12:15:49;11.08;79.83
73133;DHT22;61320;52.008;4.530;2023-01-09T12:21:29;11.04;77.80
73133;DHT22;61320;52.008;4.530;2023-01-09T12:27:17;11.04;79.67
73133;DHT22;61320;52.008;4.530;2023-01-09T12:33:06;11.04;78.07
73133;DHT22;61320;52.008;4.530;2023-01-09T12:44:11;10.91;76.99
73133;DHT22;61320;52.008;4.530;2023-01-09T12:49:25;10.86;77.97
73133;DHT22;61320;52.008;4.530;2023-01-09T12:52:08;10.85;78.55
73133;DHT22;61320;52.008;4.530;2023-01-09T12:54:55;10.85;79.07
73133;DHT22;61320;52.008;4.530;2023-01-09T12:57:31;10.82;78.38
73133;DHT22;61320;52.008;4.530;2023-01-09T13:02:55;10.92;78.59
73133;DHT22;61320;52.008;4.530;2023-01-09T13:05:30;10.92;77.41
73133;DHT22;61320;52.008;4.530;2023-01-09T13:08:14;10.92;77.71
73133;DHT22;61320;52.008;4.530;2023-01-09T13:10:56;10.91;78.08
73133;DHT22;61320;52.008;4.530;2023-01-09T13:13:34;10.94;78.16
73133;DHT22;61320;52.008;4.530;2023-01-09T13:16:16;10.96;78.33
73133;DHT22;61320;52.008;4.530;2023-01-09T13:18:51;10.91;78.24
73133;DHT22;61320;52.008;4.530;2023-01-09T13:21:18;10.86;76.94
73133;DHT22;61320;52.008;4.530;2023-01-09T13:26:18;10.69;76.71
73133;DHT22;61320;52.008;4.530;2023-01-09T13:28:59;10.60;76.81
73133;DHT22;61320;52.008;4.530;2023-01-09T13:34:17;10.41;77.16
73133;DHT22;61320;52.008;4.530;2023-01-09T13:36:52;10.43;78.28
73133;DHT22;61320;52.008;4.530;2023-01-09T13:39:29;10.43;78.39
73133;DHT22;61320;52.008;4.530;2023-01-09T13:42:05;10.47;77.19
73133;DHT22;61320;52.008;4.530;2023-01-09T13:44:54;10.41;78.19
73133;DHT22;61320;52.008;4.530;2023-01-09T13:47:27;10.51;78.58
73133;DHT22;61320;52.008;4.530;2023-01-09T13:52:38;10.51;76.97
73133;DHT22;61320;52.008;4.530;2023-01-09T13:57:37;10.53;76.57
73133;DHT22;61320;52.008;4.530;2023-01-09T14:08:19;10.32;77.23
73133;DHT22;61320;52.008;4.530;2023-01-09T14:10:58;10.26;77.45
73133;DHT22;61320;52.008;4.530;2023-01-09T14:13:42;10.21;76.69
73133;DHT22;61320;52.008;4.530;2023-01-09T14:16:18;10.16;76.22
73133;DHT22;61320;52.008;4.530;2023-01-09T14:19:04;10.17;77.11
73133;DHT22;61320;52.008;4.530;2023-01-09T14:21:55;10.20;78.04
73133;DHT22;61320;52.008;4.530;2023-01-09T14:24:32;10.23;76.02
73133;DHT22;61320;52.008;4.530;2023-01-09T14:26:59;10.20;77.57
73133;DHT22;61320;52.008;4.530;2023-01-09T14:29:35;10.21;77.58
73133;DHT22;61320;52.008;4.530;2023-01-09T14:35:10;10.17;77.67
73133;DHT22;61320;52.008;4.530;2023-01-09T14:37:38;10.18;77.74
73133;DHT22;61320;52.008;4.530;2023-01-09T14:40:18;10.13;76.85
73133;DHT22;61320;52.008;4.530;2023-01-09T14:42:50;10.12;76.57
73133;DHT22;61320;52.008;4.530;2023-01-09T14:45:21;10.10;77.23
73133;DHT22;61320;52.008;4.530;2023-01-09T14:48:13;10.10;77.88
73133;DHT22;61320;52.008;4.530;2023-01-09T14:50:43;10.10;78.28
73133;DHT22;61320;52.008;4.530;2023-01-09T14:53:21;10.10;77.84
73133;DHT22;61320;52.008;4.530;2023-01-09T14:56:04;10.09;78.01
73133;DHT22;61320;52.008;4.530;2023-01-09T14:58:33;10.10;77.41
73133;DHT22;61320;52.008;4.530;2023-01-09T15:03:42;10.03;77.49
73133;DHT22;61320;52.008;4.530;2023-01-09T15:06:16;10.06;75.92
73133;DHT22;61320;52.008;4.530;2023-01-09T15:08:45;10.00;77.12
73133;DHT22;61320;52.008;4.530;2023-01-09T15:11:12;9.97;76.42
73133;DHT22;61320;52.008;4.530;2023-01-09T15:13:47;9.92;76.89
73133;DHT22;61320;52.008;4.530;2023-01-09T15:16:20;9.89;77.07
73133;DHT22;61320;52.008;4.530;2023-01-09T15:18:54;9.89;77.66
73133;DHT22;61320;52.008;4.530;2023-01-09T15:21:24;9.88;76.95
73133;DHT22;61320;52.008;4.530;2023-01-09T15:23:50;9.88;78.02
73133;DHT22;61320;52.008;4.530;2023-01-09T15:26:29;9.88;77.16
73133;DHT22;61320;52.008;4.530;2023-01-09T15:29:13;9.83;77.58
73133;DHT22;61320;52.008;4.530;2023-01-09T15:31:44;9.81;76.57
73133;DHT22;61320;52.008;4.530;2023-01-09T15:34:17;9.81;77.95
73133;DHT22;61320;52.008;4.530;2023-01-09T15:36:45;9.86;77.00
73133;DHT22;61320;52.008;4.530;2023-01-09T15:39:36;9.86;76.94
73133;DHT22;61320;52.008;4.530;2023-01-09T15:42:03;9.89;76.94
73133;DHT22;61320;52.008;4.530;2023-01-09T15:44:50;9.92;77.94
73133;DHT22;61320;52.008;4.530;2023-01-09T15:47:23;9.93;78.72
73133;DHT22;61320;52.008;4.530;2023-01-09T15:49:53;9.96;77.99
73133;DHT22;61320;52.008;4.530;2023-01-09T15:52:20;10.02;79.01
73133;DHT22;61320;52.008;4.530;2023-01-09T15:54:46;10.03;78.76
73133;DHT22;61320;52.008;4.530;2023-01-09T15:59:55;9.78;79.53
73133;DHT22;61320;52.008;4.530;2023-01-09T16:02:23;9.68;79.75
73133;DHT22;61320;52.008;4.530;2023-01-09T16:05:14;9.63;80.83
73133;DHT22;61320;52.008;4.530;2023-01-09T16:07:47;9.62;80.92
73133;DHT22;61320;52.008;4.530;2023-01-09T16:10:24;9.59;81.19
73133;DHT22;61320;52.008;4.530;2023-01-09T16:12:52;9.61;81.47
73133;DHT22;61320;52.008;4.530;2023-01-09T16:15:19;9.54;81.77
73133;DHT22;61320;52.008;4.530;2023-01-09T16:20:30;9.55;81.83
73133;DHT22;61320;52.008;4.530;2023-01-09T16:22:55;9.52;81.68
73133;DHT22;61320;52.008;4.530;2023-01-09T16:25:28;9.57;82.05
73133;DHT22;61320;52.008;4.530;2023-01-09T16:28:20;9.61;82.07
73133;DHT22;61320;52.008;4.530;2023-01-09T16:31:14;9.62;81.89
73133;DHT22;61320;52.008;4.530;2023-01-09T16:33:48;9.62;81.42
73133;DHT22;61320;52.008;4.530;2023-01-09T16:36:16;9.68;81.64
73133;DHT22;61320;52.008;4.530;2023-01-09T16:38:43;9.68;81.70
73133;DHT22;61320;52.008;4.530;2023-01-09T16:41:14;9.72;81.88
73133;DHT22;61320;52.008;4.530;2023-01-09T16:43:59;9.72;81.31
73133;DHT22;61320;52.008;4.530;2023-01-09T16:46:25;9.81;81.48
73133;DHT22;61320;52.008;4.530;2023-01-09T16:48:52;9.82;80.92
73133;DHT22;61320;52.008;4.530;2023-01-09T16:51:21;9.78;81.13
73133;DHT22;61320;52.008;4.530;2023-01-09T16:53:47;9.81;81.15
73133;DHT22;61320;52.008;4.530;2023-01-09T16:58:41;9.85;81.28
73133;DHT22;61320;52.008;4.530;2023-01-09T17:01:07;9.86;81.29
73133;DHT22;61320;52.008;4.530;2023-01-09T17:03:34;9.83;80.36
73133;DHT22;61320;52.008;4.530;2023-01-09T17:06:02;9.83;79.77
73133;DHT22;61320;52.008;4.530;2023-01-09T17:08:30;9.81;79.88
73133;DHT22;61320;52.008;4.530;2023-01-09T17:10:57;9.75;80.37
73133;DHT22;61320;52.008;4.530;2023-01-09T17:13:23;9.72;80.39
73133;DHT22;61320;52.008;4.530;2023-01-09T17:15:50;9.72;80.19
73133;DHT22;61320;52.008;4.530;2023-01-09T17:18:19;9.68;80.16
73133;DHT22;61320;52.008;4.530;2023-01-09T17:20:47;9.68;79.43
73133;DHT22;61320;52.008;4.530;2023-01-09T17:23:13;9.61;79.72
73133;DHT22;61320;52.008;4.530;2023-01-09T17:25:39;9.61;79.97
73133;DHT22;61320;52.008;4.530;2023-01-09T17:28:24;9.59;80.66
73133;DHT22;61320;52.008;4.530;2023-01-09T17:30:59;9.62;80.22
73133;DHT22;61320;52.008;4.530;2023-01-09T17:33:26;9.62;81.25
73133;DHT22;61320;52.008;4.530;2023-01-09T17:35:52;9.72;81.51
73133;DHT22;61320;52.008;4.530;2023-01-09T17:38:18;9.74;81.51
73133;DHT22;61320;52.008;4.530;2023-01-09T17:40:44;9.74;80.58
73133;DHT22;61320;52.008;4.530;2023-01-09T17:43:10;9.68;81.01
73133;DHT22;61320;52.008;4.530;2023-01-09T17:45:39;9.67;81.21
73133;DHT22;61320;52.008;4.530;2023-01-09T17:48:16;9.57;81.30
73133;DHT22;61320;52.008;4.530;2023-01-09T17:50:43;9.54;80.56
73133;DHT22;61320;52.008;4.530;2023-01-09T17:53:09;9.49;80.11
73133;DHT22;61320;52.008;4.530;2023-01-09T17:55:34;9.45;80.04
73133;DHT22;61320;52.008;4.530;2023-01-09T17:58:00;9.42;80.18
73133;DHT22;61320;52.008;4.530;2023-01-09T18:00:29;9.41;80.81
73133;DHT22;61320;52.008;4.530;2023-01-09T18:02:57;9.37;80.45
73133;DHT22;61320;52.008;4.530;2023-01-09T18:05:23;9.34;80.25
73133;DHT22;61320;52.008;4.530;2023-01-09T18:07:49;9.30;79.59
73133;DHT22;61320;52.008;4.530;2023-01-09T18:10:18;9.31;79.71
73133;DHT22;61320;52.008;4.530;2023-01-09T18:12:48;9.28;80.20